HAZ3630 ZPJH-ZGGG
Flight info
| Callsign | HAZ3630 |
|---|---|
| Flight time | 1h 47m |
| Altitude | 31100 |
| Route | BIDRU7W BIDRU A581 SGM A599 GYA GYA8 |
| Aircraft | A320/M-SDE3FGHIRWY/LB1 |
Departure
| Time | 2026-05-03 23:42 |
|---|---|
| Airport | Xishuangbanna Gasa International Airport (ZPJH) |
Arrival
| Time | 2026-05-04 01:29 |
|---|---|
| Airport | Guangzhou Baiyun International Airport (ZGGG) |
| Time | Latitude | Longitude | Altitude | Speed | Heading |
|---|---|---|---|---|---|
| 2026-05-03 23:13 | 21.97735 | 100.76468 | 1836 ft | 0 kts | 69° |
| 2026-05-03 23:32 | 21.97733 | 100.76461 | 1831 ft | 4 kts | 69° |
| 2026-05-03 23:32 | 21.97724 | 100.76437 | 1831 ft | 2 kts | 69° |
| 2026-05-03 23:32 | 21.97717 | 100.76412 | 1837 ft | 4 kts | 90° |
| 2026-05-03 23:33 | 21.97721 | 100.76385 | 1837 ft | 2 kts | 107° |
| 2026-05-03 23:33 | 21.97722 | 100.76383 | 1837 ft | 0 kts | 108° |
| 2026-05-03 23:36 | 21.97716 | 100.76389 | 1837 ft | 3 kts | 146° |
| 2026-05-03 23:37 | 21.97681 | 100.76407 | 1834 ft | 8 kts | 158° |
| 2026-05-03 23:37 | 21.97612 | 100.76432 | 1834 ft | 9 kts | 163° |
| 2026-05-03 23:37 | 21.97567 | 100.76413 | 1834 ft | 1 kts | 220° |
| 2026-05-03 23:37 | 21.97543 | 100.76395 | 1834 ft | 7 kts | 205° |
| 2026-05-03 23:38 | 21.97481 | 100.76409 | 1834 ft | 12 kts | 162° |
| 2026-05-03 23:38 | 21.97385 | 100.76442 | 1834 ft | 17 kts | 161° |
| 2026-05-03 23:38 | 21.97255 | 100.76491 | 1834 ft | 22 kts | 161° |
| 2026-05-03 23:38 | 21.97120 | 100.76538 | 1834 ft | 18 kts | 162° |
| 2026-05-03 23:39 | 21.97009 | 100.76560 | 1834 ft | 6 kts | 218° |
| 2026-05-03 23:39 | 21.96978 | 100.76504 | 1835 ft | 11 kts | 244° |
| 2026-05-03 23:39 | 21.96915 | 100.76445 | 1835 ft | 15 kts | 177° |
| 2026-05-03 23:39 | 21.96797 | 100.76480 | 1835 ft | 20 kts | 160° |
| 2026-05-03 23:40 | 21.96647 | 100.76537 | 1835 ft | 25 kts | 160° |
| 2026-05-03 23:40 | 21.96512 | 100.76599 | 1833 ft | 15 kts | 142° |
| 2026-05-03 23:40 | 21.96447 | 100.76616 | 1832 ft | 3 kts | 241° |
| 2026-05-03 23:40 | 21.96467 | 100.76604 | 1832 ft | 5 kts | 344° |
| 2026-05-03 23:41 | 21.96512 | 100.76589 | 1833 ft | 0 kts | 341° |
| 2026-05-03 23:41 | 21.96566 | 100.76569 | 1834 ft | 33 kts | 341° |
| 2026-05-03 23:41 | 21.97036 | 100.76391 | 1834 ft | 106 kts | 341° |
| 2026-05-03 23:41 | 21.97915 | 100.76059 | 1842 ft | 160 kts | 341° |
| 2026-05-03 23:42 | 21.98999 | 100.75645 | 2402 ft | 164 kts | 340° |
| 2026-05-03 23:42 | 22.00063 | 100.75214 | 3138 ft | 164 kts | 339° |
| 2026-05-03 23:42 | 22.01123 | 100.74783 | 3822 ft | 161 kts | 340° |
| 2026-05-03 23:42 | 22.02227 | 100.74361 | 4196 ft | 178 kts | 343° |
| 2026-05-03 23:43 | 22.03499 | 100.73997 | 4508 ft | 198 kts | 347° |
| 2026-05-03 23:43 | 22.04926 | 100.73637 | 4798 ft | 223 kts | 347° |
| 2026-05-03 23:43 | 22.06513 | 100.73241 | 5156 ft | 247 kts | 347° |
| 2026-05-03 23:43 | 22.08275 | 100.72864 | 5586 ft | 268 kts | 357° |
| 2026-05-03 23:44 | 22.10131 | 100.73231 | 6326 ft | 276 kts | 20° |
| 2026-05-03 23:44 | 22.11881 | 100.74134 | 7150 ft | 282 kts | 28° |
| 2026-05-03 23:44 | 22.13579 | 100.75223 | 7967 ft | 286 kts | 30° |
| 2026-05-03 23:44 | 22.15287 | 100.76354 | 8826 ft | 290 kts | 29° |
| 2026-05-03 23:45 | 22.17030 | 100.77468 | 9656 ft | 293 kts | 27° |
| 2026-05-03 23:45 | 22.18821 | 100.78557 | 10404 ft | 297 kts | 26° |
| 2026-05-03 23:45 | 22.20693 | 100.79644 | 10784 ft | 317 kts | 25° |
| 2026-05-03 23:45 | 22.22724 | 100.80785 | 11023 ft | 340 kts | 24° |
| 2026-05-03 23:46 | 22.24903 | 100.81991 | 11204 ft | 363 kts | 24° |
| 2026-05-03 23:46 | 22.27206 | 100.83260 | 11544 ft | 378 kts | 24° |
| 2026-05-03 23:46 | 22.29571 | 100.84566 | 12114 ft | 385 kts | 25° |
| 2026-05-03 23:46 | 22.31967 | 100.85893 | 12746 ft | 388 kts | 25° |
| 2026-05-03 23:47 | 22.34384 | 100.87237 | 13337 ft | 394 kts | 25° |
| 2026-05-03 23:47 | 22.36837 | 100.88603 | 13934 ft | 400 kts | 25° |
| 2026-05-03 23:47 | 22.39327 | 100.89991 | 14473 ft | 405 kts | 25° |
| 2026-05-03 23:47 | 22.41846 | 100.91392 | 15015 ft | 409 kts | 24° |
| 2026-05-03 23:48 | 22.44429 | 100.92706 | 15526 ft | 411 kts | 17° |
| 2026-05-03 23:48 | 22.47182 | 100.93554 | 16008 ft | 412 kts | 7° |
| 2026-05-03 23:48 | 22.50029 | 100.93941 | 16510 ft | 414 kts | 2° |
| 2026-05-03 23:48 | 22.52872 | 100.94264 | 17009 ft | 419 kts | 2° |
| 2026-05-03 23:49 | 22.55783 | 100.94596 | 17495 ft | 423 kts | 2° |
| 2026-05-03 23:49 | 22.58724 | 100.94936 | 17965 ft | 428 kts | 2° |
| 2026-05-03 23:49 | 22.61697 | 100.95285 | 18426 ft | 432 kts | 2° |
| 2026-05-03 23:49 | 22.64700 | 100.95642 | 18827 ft | 435 kts | 2° |
| 2026-05-03 23:50 | 22.67714 | 100.96003 | 19260 ft | 437 kts | 2° |
| 2026-05-03 23:50 | 22.69754 | 100.96352 | 19543 ft | 442 kts | 8° |
| 2026-05-03 23:50 | 22.73648 | 100.97769 | 20131 ft | 452 kts | 21° |
| 2026-05-03 23:50 | 22.76418 | 100.99433 | 20565 ft | 457 kts | 27° |
| 2026-05-03 23:51 | 22.79149 | 101.01193 | 21007 ft | 458 kts | 27° |
| 2026-05-03 23:51 | 22.81899 | 101.02962 | 21454 ft | 460 kts | 26° |
| 2026-05-03 23:51 | 22.84658 | 101.04737 | 21836 ft | 462 kts | 27° |
| 2026-05-03 23:51 | 22.87432 | 101.06524 | 22227 ft | 465 kts | 26° |
| 2026-05-03 23:52 | 22.90222 | 101.08322 | 22634 ft | 467 kts | 26° |
| 2026-05-03 23:52 | 22.93020 | 101.10128 | 23006 ft | 469 kts | 26° |
| 2026-05-03 23:52 | 22.95828 | 101.11943 | 23376 ft | 471 kts | 26° |
| 2026-05-03 23:52 | 22.98653 | 101.13771 | 23734 ft | 474 kts | 26° |
| 2026-05-03 23:53 | 23.01491 | 101.15607 | 24024 ft | 476 kts | 26° |
| 2026-05-03 23:53 | 23.04337 | 101.17451 | 24309 ft | 478 kts | 27° |
| 2026-05-03 23:53 | 23.07200 | 101.19304 | 24593 ft | 480 kts | 27° |
| 2026-05-03 23:53 | 23.10079 | 101.21165 | 24859 ft | 482 kts | 27° |
| 2026-05-03 23:54 | 23.12972 | 101.23036 | 25129 ft | 485 kts | 27° |
| 2026-05-03 23:54 | 23.15877 | 101.24915 | 25373 ft | 487 kts | 26° |
| 2026-05-03 23:54 | 23.18796 | 101.26803 | 25641 ft | 489 kts | 26° |
| 2026-05-03 23:54 | 23.21730 | 101.28699 | 25910 ft | 492 kts | 26° |
| 2026-05-03 23:55 | 23.24673 | 101.30607 | 26154 ft | 493 kts | 27° |
| 2026-05-03 23:55 | 23.27626 | 101.32527 | 26368 ft | 497 kts | 27° |
| 2026-05-03 23:55 | 23.30603 | 101.34464 | 26585 ft | 499 kts | 26° |
| 2026-05-03 23:55 | 23.33584 | 101.36403 | 26862 ft | 501 kts | 27° |
| 2026-05-03 23:56 | 23.36582 | 101.38350 | 27167 ft | 502 kts | 27° |
| 2026-05-03 23:56 | 23.39586 | 101.40301 | 27434 ft | 503 kts | 26° |
| 2026-05-03 23:56 | 23.42593 | 101.42255 | 27726 ft | 504 kts | 26° |
| 2026-05-03 23:56 | 23.45601 | 101.44212 | 28103 ft | 503 kts | 26° |
| 2026-05-03 23:57 | 23.48608 | 101.46171 | 28380 ft | 504 kts | 26° |
| 2026-05-03 23:57 | 23.51615 | 101.48134 | 28703 ft | 504 kts | 26° |
| 2026-05-03 23:57 | 23.54631 | 101.50102 | 29066 ft | 505 kts | 26° |
| 2026-05-03 23:57 | 23.57637 | 101.52062 | 29463 ft | 504 kts | 26° |
| 2026-05-03 23:58 | 23.60608 | 101.53999 | 29816 ft | 504 kts | 26° |
| 2026-05-03 23:58 | 23.63652 | 101.55984 | 30203 ft | 503 kts | 26° |
| 2026-05-03 23:58 | 23.66606 | 101.57914 | 30603 ft | 500 kts | 26° |
| 2026-05-03 23:58 | 23.69580 | 101.59861 | 31002 ft | 498 kts | 26° |
| 2026-05-03 23:59 | 23.72546 | 101.61803 | 31238 ft | 497 kts | 26° |
| 2026-05-03 23:59 | 23.75513 | 101.63744 | 31298 ft | 498 kts | 26° |
| 2026-05-03 23:59 | 23.81510 | 101.67663 | 31313 ft | 499 kts | 26° |
| 2026-05-04 00:00 | 23.87438 | 101.71542 | 31320 ft | 500 kts | 26° |
| 2026-05-04 00:00 | 23.93406 | 101.75459 | 31362 ft | 500 kts | 26° |
| 2026-05-04 00:01 | 23.99334 | 101.79367 | 31332 ft | 495 kts | 26° |
| 2026-05-04 00:01 | 24.05266 | 101.83291 | 31345 ft | 495 kts | 26° |
| 2026-05-04 00:02 | 24.11118 | 101.87159 | 31332 ft | 495 kts | 26° |
| 2026-05-04 00:02 | 24.17012 | 101.91061 | 31340 ft | 495 kts | 26° |
| 2026-05-04 00:03 | 24.22908 | 101.94963 | 31358 ft | 495 kts | 26° |
| 2026-05-04 00:03 | 24.28820 | 101.98887 | 31336 ft | 498 kts | 26° |
| 2026-05-04 00:04 | 24.34754 | 102.02832 | 31348 ft | 500 kts | 26° |
| 2026-05-04 00:04 | 24.40707 | 102.06794 | 31362 ft | 501 kts | 25° |
| 2026-05-04 00:05 | 24.46676 | 102.10767 | 31368 ft | 503 kts | 25° |
| 2026-05-04 00:05 | 24.52656 | 102.14763 | 31386 ft | 503 kts | 25° |
| 2026-05-04 00:06 | 24.58647 | 102.18765 | 31389 ft | 505 kts | 25° |
| 2026-05-04 00:06 | 24.64653 | 102.22776 | 31397 ft | 506 kts | 25° |
| 2026-05-04 00:07 | 24.70666 | 102.26798 | 31401 ft | 506 kts | 25° |
| 2026-05-04 00:07 | 24.76685 | 102.30830 | 31409 ft | 506 kts | 25° |
| 2026-05-04 00:08 | 24.82697 | 102.34856 | 31422 ft | 506 kts | 25° |
| 2026-05-04 00:08 | 24.88704 | 102.38892 | 31433 ft | 506 kts | 25° |
| 2026-05-04 00:09 | 24.94719 | 102.42937 | 31440 ft | 506 kts | 25° |
| 2026-05-04 00:09 | 25.00453 | 102.47479 | 31441 ft | 520 kts | 43° |
| 2026-05-04 00:10 | 25.02538 | 102.50766 | 31447 ft | 529 kts | 60° |
| 2026-05-04 00:10 | 25.03763 | 102.54592 | 31438 ft | 533 kts | 78° |
| 2026-05-04 00:10 | 25.04032 | 102.58667 | 31434 ft | 533 kts | 95° |
| 2026-05-04 00:10 | 25.03672 | 102.61327 | 31430 ft | 530 kts | 107° |
| 2026-05-04 00:11 | 25.02382 | 102.65103 | 31438 ft | 525 kts | 119° |
| 2026-05-04 00:11 | 25.00784 | 102.68727 | 31430 ft | 526 kts | 120° |
| 2026-05-04 00:11 | 24.97563 | 102.75973 | 31432 ft | 527 kts | 120° |
| 2026-05-04 00:12 | 24.94328 | 102.83236 | 31425 ft | 528 kts | 120° |
| 2026-05-04 00:12 | 24.91094 | 102.90518 | 31447 ft | 530 kts | 119° |
| 2026-05-04 00:13 | 24.87900 | 102.97826 | 31448 ft | 530 kts | 119° |
| 2026-05-04 00:13 | 24.84716 | 103.05157 | 31447 ft | 531 kts | 119° |
| 2026-05-04 00:14 | 24.81519 | 103.12474 | 31444 ft | 530 kts | 119° |
| 2026-05-04 00:14 | 24.78323 | 103.19738 | 31432 ft | 531 kts | 119° |
| 2026-05-04 00:15 | 24.75099 | 103.27046 | 31419 ft | 531 kts | 119° |
| 2026-05-04 00:15 | 24.71872 | 103.34365 | 31424 ft | 531 kts | 119° |
| 2026-05-04 00:16 | 24.68648 | 103.41671 | 31426 ft | 532 kts | 119° |
| 2026-05-04 00:16 | 24.65415 | 103.48988 | 31426 ft | 532 kts | 119° |
| 2026-05-04 00:17 | 24.62186 | 103.56297 | 31403 ft | 532 kts | 119° |
| 2026-05-04 00:17 | 24.58940 | 103.63608 | 31406 ft | 532 kts | 119° |
| 2026-05-04 00:18 | 24.55688 | 103.70908 | 31399 ft | 532 kts | 119° |
| 2026-05-04 00:18 | 24.53253 | 103.78607 | 31392 ft | 538 kts | 104° |
| 2026-05-04 00:19 | 24.51573 | 103.86607 | 31398 ft | 538 kts | 105° |
| 2026-05-04 00:19 | 24.49868 | 103.94612 | 31383 ft | 538 kts | 105° |
| 2026-05-04 00:20 | 24.48150 | 104.02612 | 31380 ft | 539 kts | 105° |
| 2026-05-04 00:20 | 24.46425 | 104.10624 | 31377 ft | 539 kts | 105° |
| 2026-05-04 00:21 | 24.44713 | 104.18628 | 31372 ft | 539 kts | 105° |
| 2026-05-04 00:21 | 24.42997 | 104.26633 | 31355 ft | 539 kts | 105° |
| 2026-05-04 00:22 | 24.41264 | 104.34641 | 31355 ft | 539 kts | 105° |
| 2026-05-04 00:22 | 24.39526 | 104.42643 | 31343 ft | 539 kts | 105° |
| 2026-05-04 00:23 | 24.37786 | 104.50650 | 31334 ft | 539 kts | 105° |
| 2026-05-04 00:23 | 24.36046 | 104.58655 | 31335 ft | 540 kts | 105° |
| 2026-05-04 00:24 | 24.34317 | 104.66612 | 31322 ft | 540 kts | 105° |
| 2026-05-04 00:24 | 24.32566 | 104.74615 | 31322 ft | 540 kts | 105° |
| 2026-05-04 00:25 | 24.30804 | 104.82617 | 31324 ft | 540 kts | 105° |
| 2026-05-04 00:25 | 24.29031 | 104.90674 | 31326 ft | 540 kts | 105° |
| 2026-05-04 00:26 | 24.27270 | 104.98669 | 31304 ft | 540 kts | 105° |
| 2026-05-04 00:26 | 24.25510 | 105.06602 | 31307 ft | 539 kts | 106° |
| 2026-05-04 00:27 | 24.23744 | 105.14579 | 31317 ft | 538 kts | 106° |
| 2026-05-04 00:27 | 24.21972 | 105.22549 | 31315 ft | 538 kts | 106° |
| 2026-05-04 00:28 | 24.20113 | 105.30473 | 31313 ft | 537 kts | 108° |
| 2026-05-04 00:28 | 24.18163 | 105.38365 | 31316 ft | 537 kts | 108° |
| 2026-05-04 00:29 | 24.16207 | 105.46260 | 31297 ft | 537 kts | 108° |
| 2026-05-04 00:29 | 24.14279 | 105.54155 | 31298 ft | 537 kts | 107° |
| 2026-05-04 00:30 | 24.12362 | 105.62067 | 31288 ft | 537 kts | 108° |
| 2026-05-04 00:30 | 24.10432 | 105.69971 | 31289 ft | 538 kts | 108° |
| 2026-05-04 00:31 | 24.08686 | 105.77944 | 31293 ft | 539 kts | 104° |
| 2026-05-04 00:31 | 24.07182 | 105.85984 | 31277 ft | 539 kts | 103° |
| 2026-05-04 00:32 | 24.05681 | 105.94021 | 31280 ft | 539 kts | 104° |
| 2026-05-04 00:32 | 24.04090 | 106.02045 | 31268 ft | 539 kts | 105° |
| 2026-05-04 00:33 | 24.01648 | 106.14062 | 31275 ft | 540 kts | 105° |
| 2026-05-04 00:34 | 24.00049 | 106.22020 | 31270 ft | 540 kts | 105° |
| 2026-05-04 00:34 | 23.98445 | 106.30040 | 31257 ft | 540 kts | 105° |
| 2026-05-04 00:35 | 23.96827 | 106.38045 | 31255 ft | 540 kts | 105° |
| 2026-05-04 00:35 | 23.95200 | 106.46059 | 31263 ft | 539 kts | 105° |
| 2026-05-04 00:36 | 23.93573 | 106.54064 | 31257 ft | 540 kts | 105° |
| 2026-05-04 00:36 | 23.92195 | 106.62124 | 31264 ft | 542 kts | 96° |
| 2026-05-04 00:37 | 23.91656 | 106.70353 | 31273 ft | 543 kts | 96° |
| 2026-05-04 00:37 | 23.91121 | 106.78592 | 31253 ft | 543 kts | 96° |
| 2026-05-04 00:38 | 23.90573 | 106.86823 | 31252 ft | 544 kts | 96° |
| 2026-05-04 00:38 | 23.90014 | 106.95059 | 31248 ft | 543 kts | 96° |
| 2026-05-04 00:39 | 23.89446 | 107.03298 | 31249 ft | 544 kts | 96° |
| 2026-05-04 00:39 | 23.88887 | 107.11536 | 31240 ft | 544 kts | 96° |
| 2026-05-04 00:40 | 23.88326 | 107.19779 | 31240 ft | 544 kts | 96° |
| 2026-05-04 00:40 | 23.87759 | 107.28022 | 31251 ft | 544 kts | 96° |
| 2026-05-04 00:41 | 23.87173 | 107.36259 | 31236 ft | 544 kts | 96° |
| 2026-05-04 00:41 | 23.86590 | 107.44446 | 31246 ft | 544 kts | 96° |
| 2026-05-04 00:42 | 23.86009 | 107.52693 | 31232 ft | 545 kts | 96° |
| 2026-05-04 00:42 | 23.85426 | 107.60946 | 31235 ft | 545 kts | 96° |
| 2026-05-04 00:43 | 23.84833 | 107.69196 | 31242 ft | 545 kts | 96° |
| 2026-05-04 00:43 | 23.84227 | 107.77443 | 31218 ft | 544 kts | 97° |
| 2026-05-04 00:44 | 23.83618 | 107.85687 | 31226 ft | 545 kts | 96° |
| 2026-05-04 00:44 | 23.83124 | 107.93954 | 31223 ft | 546 kts | 95° |
| 2026-05-04 00:45 | 23.82759 | 108.02229 | 31225 ft | 546 kts | 94° |
| 2026-05-04 00:45 | 23.82392 | 108.10507 | 31234 ft | 546 kts | 95° |
| 2026-05-04 00:46 | 23.81969 | 108.18771 | 31230 ft | 546 kts | 95° |
| 2026-05-04 00:46 | 23.81502 | 108.27050 | 31223 ft | 546 kts | 96° |
| 2026-05-04 00:47 | 23.81019 | 108.35318 | 31223 ft | 546 kts | 95° |
| 2026-05-04 00:47 | 23.80544 | 108.43580 | 31223 ft | 546 kts | 96° |
| 2026-05-04 00:48 | 23.80074 | 108.51856 | 31229 ft | 546 kts | 95° |
| 2026-05-04 00:48 | 23.79601 | 108.60133 | 31222 ft | 546 kts | 96° |
| 2026-05-04 00:49 | 23.79119 | 108.68401 | 31231 ft | 546 kts | 96° |
| 2026-05-04 00:49 | 23.78623 | 108.76668 | 31221 ft | 546 kts | 96° |
| 2026-05-04 00:50 | 23.78135 | 108.84934 | 31218 ft | 545 kts | 96° |
| 2026-05-04 00:50 | 23.77648 | 108.93142 | 31225 ft | 545 kts | 96° |
| 2026-05-04 00:51 | 23.77150 | 109.01397 | 31213 ft | 545 kts | 96° |
| 2026-05-04 00:51 | 23.76645 | 109.09651 | 31218 ft | 545 kts | 96° |
| 2026-05-04 00:52 | 23.75707 | 109.17823 | 31214 ft | 541 kts | 106° |
| 2026-05-04 00:52 | 23.74084 | 109.25843 | 31208 ft | 541 kts | 105° |
| 2026-05-04 00:53 | 23.72467 | 109.33865 | 31211 ft | 541 kts | 105° |
| 2026-05-04 00:53 | 23.70851 | 109.41882 | 31219 ft | 541 kts | 105° |
| 2026-05-04 00:54 | 23.69237 | 109.49893 | 31210 ft | 541 kts | 106° |
| 2026-05-04 00:54 | 23.67613 | 109.57904 | 31216 ft | 541 kts | 106° |
| 2026-05-04 00:55 | 23.65981 | 109.65904 | 31212 ft | 540 kts | 106° |
| 2026-05-04 00:55 | 23.64324 | 109.73902 | 31212 ft | 540 kts | 106° |
| 2026-05-04 00:56 | 23.62665 | 109.81882 | 31203 ft | 540 kts | 106° |
| 2026-05-04 00:56 | 23.61004 | 109.89866 | 31211 ft | 540 kts | 106° |
| 2026-05-04 00:57 | 23.59345 | 109.97850 | 31206 ft | 539 kts | 106° |
| 2026-05-04 00:57 | 23.57691 | 110.05816 | 31205 ft | 539 kts | 106° |
| 2026-05-04 00:58 | 23.56025 | 110.13781 | 31200 ft | 539 kts | 107° |
| 2026-05-04 00:58 | 23.54640 | 110.20403 | 31207 ft | 539 kts | 107° |
| 2026-05-04 00:59 | 23.52969 | 110.28352 | 31210 ft | 538 kts | 107° |
| 2026-05-04 00:59 | 23.51024 | 110.37586 | 31207 ft | 538 kts | 107° |
| 2026-05-04 01:00 | 23.49395 | 110.45533 | 31198 ft | 538 kts | 106° |
| 2026-05-04 01:00 | 23.48054 | 110.52209 | 31200 ft | 538 kts | 106° |
| 2026-05-04 01:01 | 23.46466 | 110.60109 | 31199 ft | 537 kts | 106° |
| 2026-05-04 01:01 | 23.44824 | 110.68097 | 31197 ft | 537 kts | 107° |
| 2026-05-04 01:02 | 23.43184 | 110.75973 | 31195 ft | 537 kts | 107° |
| 2026-05-04 01:02 | 23.41504 | 110.83940 | 31182 ft | 536 kts | 107° |
| 2026-05-04 01:03 | 23.39830 | 110.91843 | 31180 ft | 536 kts | 107° |
| 2026-05-04 01:03 | 23.38166 | 110.99697 | 30963 ft | 537 kts | 107° |
| 2026-05-04 01:03 | 23.37330 | 111.03651 | 30726 ft | 537 kts | 107° |
| 2026-05-04 01:04 | 23.36489 | 111.07613 | 30512 ft | 538 kts | 107° |
| 2026-05-04 01:04 | 23.35644 | 111.11583 | 30283 ft | 538 kts | 107° |
| 2026-05-04 01:04 | 23.34798 | 111.15554 | 30032 ft | 539 kts | 107° |
| 2026-05-04 01:04 | 23.33966 | 111.19531 | 29772 ft | 540 kts | 107° |
| 2026-05-04 01:05 | 23.33150 | 111.23513 | 29505 ft | 541 kts | 107° |
| 2026-05-04 01:05 | 23.32339 | 111.27516 | 29238 ft | 541 kts | 106° |
| 2026-05-04 01:05 | 23.31532 | 111.31507 | 28979 ft | 542 kts | 106° |
| 2026-05-04 01:05 | 23.30721 | 111.35512 | 28721 ft | 542 kts | 106° |
| 2026-05-04 01:06 | 23.29905 | 111.39518 | 28470 ft | 542 kts | 106° |
| 2026-05-04 01:06 | 23.29084 | 111.43524 | 28209 ft | 543 kts | 106° |
| 2026-05-04 01:06 | 23.28261 | 111.47529 | 27959 ft | 543 kts | 106° |
| 2026-05-04 01:06 | 23.27432 | 111.51547 | 27709 ft | 544 kts | 106° |
| 2026-05-04 01:07 | 23.26600 | 111.55551 | 27460 ft | 544 kts | 106° |
| 2026-05-04 01:07 | 23.25756 | 111.59567 | 27220 ft | 545 kts | 106° |
| 2026-05-04 01:07 | 23.24905 | 111.63577 | 26986 ft | 545 kts | 106° |
| 2026-05-04 01:07 | 23.24047 | 111.67593 | 26736 ft | 545 kts | 106° |
| 2026-05-04 01:08 | 23.23189 | 111.71608 | 26495 ft | 546 kts | 106° |
| 2026-05-04 01:08 | 23.22330 | 111.75632 | 26258 ft | 546 kts | 106° |
| 2026-05-04 01:08 | 23.21473 | 111.79660 | 26023 ft | 547 kts | 106° |
| 2026-05-04 01:08 | 23.20618 | 111.83678 | 25776 ft | 547 kts | 106° |
| 2026-05-04 01:09 | 23.19767 | 111.87716 | 25543 ft | 548 kts | 105° |
| 2026-05-04 01:09 | 23.18928 | 111.91756 | 25323 ft | 548 kts | 105° |
| 2026-05-04 01:09 | 23.18095 | 111.95788 | 25097 ft | 548 kts | 105° |
| 2026-05-04 01:09 | 23.17258 | 111.99834 | 24867 ft | 548 kts | 105° |
| 2026-05-04 01:10 | 23.16419 | 112.03877 | 24645 ft | 549 kts | 105° |
| 2026-05-04 01:10 | 23.15578 | 112.07916 | 24422 ft | 549 kts | 105° |
| 2026-05-04 01:10 | 23.14731 | 112.11973 | 24197 ft | 549 kts | 105° |
| 2026-05-04 01:10 | 23.13884 | 112.16010 | 23965 ft | 547 kts | 105° |
| 2026-05-04 01:11 | 23.13041 | 112.20020 | 23742 ft | 543 kts | 105° |
| 2026-05-04 01:11 | 23.12211 | 112.23981 | 23499 ft | 540 kts | 105° |
| 2026-05-04 01:11 | 23.11378 | 112.27955 | 23240 ft | 538 kts | 105° |
| 2026-05-04 01:11 | 23.10547 | 112.31900 | 22981 ft | 535 kts | 105° |
| 2026-05-04 01:12 | 23.09717 | 112.35829 | 22723 ft | 532 kts | 105° |
| 2026-05-04 01:12 | 23.08890 | 112.39743 | 22466 ft | 530 kts | 105° |
| 2026-05-04 01:12 | 23.08068 | 112.43628 | 22206 ft | 527 kts | 105° |
| 2026-05-04 01:12 | 23.07315 | 112.47496 | 21302 ft | 521 kts | 101° |
| 2026-05-04 01:13 | 23.07006 | 112.51342 | 20392 ft | 502 kts | 92° |
| 2026-05-04 01:13 | 23.07012 | 112.55011 | 19548 ft | 483 kts | 91° |
| 2026-05-04 01:13 | 23.07018 | 112.58598 | 18720 ft | 469 kts | 91° |
| 2026-05-04 01:13 | 23.07016 | 112.62168 | 17841 ft | 464 kts | 91° |
| 2026-05-04 01:14 | 23.07008 | 112.65606 | 17081 ft | 459 kts | 91° |
| 2026-05-04 01:14 | 23.06998 | 112.69051 | 16335 ft | 457 kts | 91° |
| 2026-05-04 01:14 | 23.06986 | 112.72506 | 15578 ft | 456 kts | 91° |
| 2026-05-04 01:14 | 23.06969 | 112.75932 | 14832 ft | 454 kts | 91° |
| 2026-05-04 01:15 | 23.06940 | 112.79359 | 14100 ft | 452 kts | 92° |
| 2026-05-04 01:15 | 23.06908 | 112.82735 | 13771 ft | 439 kts | 92° |
| 2026-05-04 01:15 | 23.06878 | 112.85981 | 13665 ft | 419 kts | 92° |
| 2026-05-04 01:15 | 23.06854 | 112.89028 | 13541 ft | 389 kts | 92° |
| 2026-05-04 01:16 | 23.06834 | 112.91864 | 13373 ft | 364 kts | 92° |
| 2026-05-04 01:16 | 23.06814 | 112.94527 | 13212 ft | 342 kts | 92° |
| 2026-05-04 01:16 | 23.06791 | 112.97034 | 13061 ft | 323 kts | 92° |
| 2026-05-04 01:16 | 23.06766 | 112.99410 | 12922 ft | 307 kts | 92° |
| 2026-05-04 01:17 | 23.06742 | 113.01680 | 12778 ft | 301 kts | 92° |
| 2026-05-04 01:17 | 23.06697 | 113.03926 | 12642 ft | 293 kts | 98° |
| 2026-05-04 01:17 | 23.06099 | 113.05953 | 12512 ft | 276 kts | 129° |
| 2026-05-04 01:17 | 23.04808 | 113.07383 | 12322 ft | 262 kts | 155° |
| 2026-05-04 01:18 | 23.03138 | 113.08039 | 11886 ft | 252 kts | 182° |
| 2026-05-04 01:18 | 23.01399 | 113.08025 | 11505 ft | 251 kts | 189° |
| 2026-05-04 01:18 | 22.99641 | 113.07959 | 11121 ft | 255 kts | 188° |
| 2026-05-04 01:18 | 22.97856 | 113.07959 | 10731 ft | 262 kts | 178° |
| 2026-05-04 01:19 | 22.96134 | 113.08730 | 10335 ft | 280 kts | 146° |
| 2026-05-04 01:19 | 22.94957 | 113.10466 | 9866 ft | 295 kts | 113° |
| 2026-05-04 01:19 | 22.94377 | 113.12589 | 9344 ft | 292 kts | 107° |
| 2026-05-04 01:19 | 22.93899 | 113.14703 | 8915 ft | 285 kts | 105° |
| 2026-05-04 01:20 | 22.93757 | 113.16810 | 8494 ft | 279 kts | 77° |
| 2026-05-04 01:20 | 22.94573 | 113.18646 | 8097 ft | 268 kts | 44° |
| 2026-05-04 01:20 | 22.96063 | 113.19739 | 7703 ft | 253 kts | 14° |
| 2026-05-04 01:20 | 22.97736 | 113.20223 | 7321 ft | 246 kts | 9° |
| 2026-05-04 01:21 | 22.99381 | 113.20666 | 6966 ft | 241 kts | 10° |
| 2026-05-04 01:21 | 23.00986 | 113.21094 | 6651 ft | 235 kts | 10° |
| 2026-05-04 01:21 | 23.02554 | 113.21513 | 6339 ft | 230 kts | 10° |
| 2026-05-04 01:21 | 23.04087 | 113.21924 | 6033 ft | 224 kts | 11° |
| 2026-05-04 01:22 | 23.05587 | 113.22326 | 5737 ft | 219 kts | 11° |
| 2026-05-04 01:22 | 23.07047 | 113.22717 | 5450 ft | 213 kts | 12° |
| 2026-05-04 01:22 | 23.08468 | 113.23099 | 5172 ft | 208 kts | 12° |
| 2026-05-04 01:22 | 23.09854 | 113.23470 | 4902 ft | 203 kts | 13° |
| 2026-05-04 01:23 | 23.11213 | 113.23834 | 4623 ft | 199 kts | 14° |
| 2026-05-04 01:23 | 23.12537 | 113.24190 | 4358 ft | 194 kts | 15° |
| 2026-05-04 01:23 | 23.13828 | 113.24537 | 4104 ft | 189 kts | 15° |
| 2026-05-04 01:23 | 23.15101 | 113.24879 | 3857 ft | 188 kts | 15° |
| 2026-05-04 01:24 | 23.16376 | 113.25223 | 3611 ft | 191 kts | 15° |
| 2026-05-04 01:24 | 23.17672 | 113.25572 | 3357 ft | 193 kts | 17° |
| 2026-05-04 01:24 | 23.18987 | 113.25926 | 3094 ft | 195 kts | 17° |
| 2026-05-04 01:24 | 23.20286 | 113.26275 | 2991 ft | 188 kts | 17° |
| 2026-05-04 01:25 | 23.21533 | 113.26611 | 2991 ft | 183 kts | 17° |
| 2026-05-04 01:25 | 23.22755 | 113.26940 | 2823 ft | 180 kts | 18° |
| 2026-05-04 01:25 | 23.23955 | 113.27264 | 2617 ft | 180 kts | 18° |
| 2026-05-04 01:25 | 23.25153 | 113.27586 | 2404 ft | 173 kts | 17° |
| 2026-05-04 01:26 | 23.26256 | 113.27882 | 2194 ft | 152 kts | 17° |
| 2026-05-04 01:26 | 23.27224 | 113.28143 | 1983 ft | 138 kts | 17° |
| 2026-05-04 01:26 | 23.28136 | 113.28390 | 1809 ft | 132 kts | 17° |
| 2026-05-04 01:26 | 23.29019 | 113.28628 | 1645 ft | 130 kts | 17° |
| 2026-05-04 01:27 | 23.29896 | 113.28865 | 1455 ft | 130 kts | 15° |
| 2026-05-04 01:27 | 23.30770 | 113.29102 | 1296 ft | 129 kts | 15° |
| 2026-05-04 01:27 | 23.31638 | 113.29336 | 1128 ft | 128 kts | 15° |
| 2026-05-04 01:27 | 23.32507 | 113.29570 | 972 ft | 129 kts | 14° |
| 2026-05-04 01:28 | 23.33378 | 113.29805 | 804 ft | 129 kts | 14° |
| 2026-05-04 01:28 | 23.34255 | 113.30042 | 642 ft | 129 kts | 14° |
| 2026-05-04 01:28 | 23.35124 | 113.30277 | 456 ft | 128 kts | 13° |
| 2026-05-04 01:28 | 23.36006 | 113.30514 | 298 ft | 132 kts | 13° |
| 2026-05-04 01:29 | 23.36900 | 113.30758 | 125 ft | 131 kts | 13° |
| 2026-05-04 01:29 | 23.37771 | 113.31004 | 61 ft | 124 kts | 15° |
| 2026-05-04 01:29 | 23.38501 | 113.31189 | 54 ft | 86 kts | 11° |
| 2026-05-04 01:29 | 23.38897 | 113.31294 | 54 ft | 29 kts | 13° |
| 2026-05-04 01:30 | 23.39089 | 113.31278 | 57 ft | 27 kts | 346° |
| 2026-05-04 01:30 | 23.39170 | 113.31256 | 56 ft | 0 kts | 346° |
| 2026-05-04 01:30 | 23.39180 | 113.31254 | 52 ft | 4 kts | 346° |
| 2026-05-04 01:30 | 23.39231 | 113.31239 | 52 ft | 11 kts | 346° |
| 2026-05-04 01:31 | 23.39325 | 113.31219 | 56 ft | 17 kts | 358° |
| 2026-05-04 01:31 | 23.39458 | 113.31246 | 57 ft | 22 kts | 13° |
| 2026-05-04 01:31 | 23.39614 | 113.31287 | 56 ft | 24 kts | 14° |
| 2026-05-04 01:31 | 23.39781 | 113.31332 | 55 ft | 25 kts | 14° |
| 2026-05-04 01:32 | 23.39942 | 113.31376 | 53 ft | 19 kts | 14° |
| 2026-05-04 01:32 | 23.40091 | 113.31417 | 53 ft | 25 kts | 14° |
| 2026-05-04 01:32 | 23.40238 | 113.31457 | 56 ft | 14 kts | 14° |
| 2026-05-04 01:32 | 23.40329 | 113.31422 | 56 ft | 7 kts | 290° |
| 2026-05-04 01:33 | 23.40332 | 113.31404 | 55 ft | 0 kts | 281° |
| 2026-05-04 01:33 | 23.40333 | 113.31401 | 51 ft | 2 kts | 285° |
| 2026-05-04 01:33 | 23.40343 | 113.31359 | 58 ft | 10 kts | 285° |
| 2026-05-04 01:33 | 23.40368 | 113.31250 | 55 ft | 19 kts | 283° |
| 2026-05-04 01:34 | 23.40380 | 113.31197 | 56 ft | 2 kts | 284° |
| 2026-05-04 01:34 | 23.40390 | 113.31159 | 58 ft | 8 kts | 284° |
| 2026-05-04 01:34 | 23.40409 | 113.31071 | 55 ft | 15 kts | 284° |
| 2026-05-04 01:34 | 23.40431 | 113.30975 | 56 ft | 14 kts | 284° |
| 2026-05-04 01:35 | 23.40421 | 113.30903 | 56 ft | 11 kts | 205° |
| 2026-05-04 01:35 | 23.40350 | 113.30882 | 54 ft | 11 kts | 194° |
| 2026-05-04 01:35 | 23.40277 | 113.30863 | 54 ft | 10 kts | 194° |
| 2026-05-04 01:35 | 23.40210 | 113.30844 | 57 ft | 10 kts | 194° |
| 2026-05-04 01:36 | 23.40193 | 113.30840 | 51 ft | 2 kts | 194° |
| 2026-05-04 01:36 | 23.40157 | 113.30830 | 53 ft | 8 kts | 194° |
| 2026-05-04 01:36 | 23.40106 | 113.30817 | 55 ft | 7 kts | 193° |
| 2026-05-04 01:36 | 23.40085 | 113.30780 | 58 ft | 6 kts | 278° |
| 2026-05-04 01:37 | 23.40096 | 113.30742 | 58 ft | 5 kts | 291° |
| 2026-05-04 01:37 | 23.40109 | 113.30709 | 55 ft | 4 kts | 293° |
| 2026-05-04 01:37 | 23.40110 | 113.30706 | 53 ft | 0 kts | 293° |